KLM2649 LSGG-LFLL
Flight info
| Callsign | KLM2649 |
|---|---|
| Flight time | 0h 16m |
| Altitude | 8000 |
| Route | DEPUL1A/22 DEPUL DCT AMKEN |
| Aircraft | A321/M-SDE3FGHIRWY/LB1 |
Departure
| Time | 2026-05-05 18:51 |
|---|---|
| Airport | Geneva International Airport (LSGG) |
Arrival
| Time | 2026-05-05 19:07 |
|---|---|
| Airport | Lyon Saint-Exupéry Airport (LFLL) |
| Time | Latitude | Longitude | Altitude | Speed | Heading |
|---|---|---|---|---|---|
| 2026-05-05 18:21 | 46.23010 | 6.10529 | 1401 ft | 0 kts | 137° |
| 2026-05-05 18:41 | 46.23023 | 6.10511 | 1386 ft | 3 kts | 137° |
| 2026-05-05 18:41 | 46.23038 | 6.10493 | 1385 ft | 3 kts | 126° |
| 2026-05-05 18:42 | 46.23044 | 6.10466 | 1384 ft | 3 kts | 61° |
| 2026-05-05 18:42 | 46.23042 | 6.10462 | 1384 ft | 0 kts | 49° |
| 2026-05-05 18:44 | 46.23051 | 6.10477 | 1386 ft | 6 kts | 52° |
| 2026-05-05 18:44 | 46.23092 | 6.10545 | 1387 ft | 13 kts | 48° |
| 2026-05-05 18:45 | 46.23158 | 6.10645 | 1386 ft | 14 kts | 44° |
| 2026-05-05 18:45 | 46.23235 | 6.10756 | 1385 ft | 17 kts | 41° |
| 2026-05-05 18:45 | 46.23349 | 6.10837 | 1379 ft | 20 kts | 39° |
| 2026-05-05 18:45 | 46.23447 | 6.10979 | 1377 ft | 20 kts | 46° |
| 2026-05-05 18:46 | 46.23548 | 6.11127 | 1375 ft | 22 kts | 45° |
| 2026-05-05 18:46 | 46.23629 | 6.11142 | 1376 ft | 8 kts | 309° |
| 2026-05-05 18:46 | 46.23689 | 6.11078 | 1375 ft | 10 kts | 7° |
| 2026-05-05 18:46 | 46.23734 | 6.11130 | 1376 ft | 13 kts | 38° |
| 2026-05-05 18:47 | 46.23825 | 6.11258 | 1378 ft | 20 kts | 45° |
| 2026-05-05 18:47 | 46.23919 | 6.11395 | 1376 ft | 20 kts | 45° |
| 2026-05-05 18:47 | 46.24026 | 6.11552 | 1373 ft | 25 kts | 45° |
| 2026-05-05 18:47 | 46.24150 | 6.11734 | 1368 ft | 26 kts | 45° |
| 2026-05-05 18:48 | 46.24279 | 6.11922 | 1367 ft | 26 kts | 45° |
| 2026-05-05 18:48 | 46.24402 | 6.12104 | 1368 ft | 23 kts | 45° |
| 2026-05-05 18:48 | 46.24502 | 6.12247 | 1367 ft | 15 kts | 45° |
| 2026-05-05 18:48 | 46.24573 | 6.12350 | 1366 ft | 14 kts | 45° |
| 2026-05-05 18:49 | 46.24646 | 6.12456 | 1362 ft | 16 kts | 45° |
| 2026-05-05 18:49 | 46.24723 | 6.12572 | 1362 ft | 16 kts | 46° |
| 2026-05-05 18:49 | 46.24811 | 6.12669 | 1360 ft | 16 kts | 21° |
| 2026-05-05 18:49 | 46.24919 | 6.12720 | 1357 ft | 16 kts | 14° |
| 2026-05-05 18:50 | 46.24998 | 6.12637 | 1359 ft | 9 kts | 267° |
| 2026-05-05 18:50 | 46.24959 | 6.12579 | 1359 ft | 15 kts | 221° |
| 2026-05-05 18:50 | 46.24657 | 6.12142 | 1368 ft | 108 kts | 225° |
| 2026-05-05 18:50 | 46.23941 | 6.11114 | 1465 ft | 172 kts | 223° |
| 2026-05-05 18:51 | 46.23116 | 6.09855 | 2317 ft | 175 kts | 225° |
| 2026-05-05 18:51 | 46.22269 | 6.08597 | 3422 ft | 177 kts | 225° |
| 2026-05-05 18:51 | 46.21363 | 6.07273 | 3901 ft | 193 kts | 224° |
| 2026-05-05 18:51 | 46.20356 | 6.05809 | 4116 ft | 219 kts | 225° |
| 2026-05-05 18:52 | 46.19207 | 6.04136 | 4560 ft | 242 kts | 225° |
| 2026-05-05 18:52 | 46.18004 | 6.02384 | 5388 ft | 248 kts | 225° |
| 2026-05-05 18:52 | 46.16786 | 6.00607 | 6349 ft | 250 kts | 225° |
| 2026-05-05 18:52 | 46.15558 | 5.98806 | 7226 ft | 254 kts | 225° |
| 2026-05-05 18:53 | 46.14321 | 5.96947 | 7802 ft | 260 kts | 228° |
| 2026-05-05 18:53 | 46.13377 | 5.94716 | 7929 ft | 265 kts | 249° |
| 2026-05-05 18:53 | 46.13181 | 5.92082 | 7898 ft | 269 kts | 274° |
| 2026-05-05 18:53 | 46.13432 | 5.89407 | 7901 ft | 268 kts | 275° |
| 2026-05-05 18:54 | 46.13691 | 5.86749 | 7903 ft | 268 kts | 275° |
| 2026-05-05 18:54 | 46.13951 | 5.84076 | 7902 ft | 270 kts | 275° |
| 2026-05-05 18:54 | 46.14206 | 5.81430 | 7907 ft | 270 kts | 275° |
| 2026-05-05 18:54 | 46.14462 | 5.78753 | 7907 ft | 270 kts | 275° |
| 2026-05-05 18:55 | 46.14716 | 5.76072 | 7911 ft | 270 kts | 274° |
| 2026-05-05 18:55 | 46.14965 | 5.73387 | 7903 ft | 270 kts | 274° |
| 2026-05-05 18:55 | 46.15214 | 5.70706 | 7908 ft | 270 kts | 275° |
| 2026-05-05 18:55 | 46.15467 | 5.68022 | 7904 ft | 270 kts | 275° |
| 2026-05-05 18:56 | 46.15721 | 5.65340 | 7906 ft | 270 kts | 274° |
| 2026-05-05 18:56 | 46.15797 | 5.62662 | 7909 ft | 266 kts | 258° |
| 2026-05-05 18:56 | 46.15189 | 5.60188 | 7905 ft | 262 kts | 238° |
| 2026-05-05 18:56 | 46.14252 | 5.57930 | 7897 ft | 262 kts | 238° |
| 2026-05-05 18:57 | 46.13313 | 5.55685 | 7518 ft | 262 kts | 238° |
| 2026-05-05 18:57 | 46.12371 | 5.53436 | 7093 ft | 262 kts | 238° |
| 2026-05-05 18:57 | 46.11431 | 5.51190 | 6657 ft | 262 kts | 238° |
| 2026-05-05 18:57 | 46.10495 | 5.48943 | 6291 ft | 260 kts | 238° |
| 2026-05-05 18:58 | 46.09566 | 5.46713 | 5964 ft | 260 kts | 238° |
| 2026-05-05 18:58 | 46.08638 | 5.44487 | 5571 ft | 258 kts | 238° |
| 2026-05-05 18:58 | 46.07716 | 5.42275 | 5186 ft | 257 kts | 238° |
| 2026-05-05 18:58 | 46.06800 | 5.40078 | 5032 ft | 256 kts | 238° |
| 2026-05-05 18:59 | 46.05880 | 5.37877 | 5029 ft | 257 kts | 238° |
| 2026-05-05 18:59 | 46.04957 | 5.35669 | 5032 ft | 258 kts | 238° |
| 2026-05-05 18:59 | 46.04034 | 5.33461 | 5029 ft | 257 kts | 238° |
| 2026-05-05 18:59 | 46.03110 | 5.31262 | 5029 ft | 257 kts | 238° |
| 2026-05-05 19:00 | 46.02184 | 5.29063 | 5033 ft | 257 kts | 238° |
| 2026-05-05 19:00 | 46.01259 | 5.26866 | 5032 ft | 257 kts | 238° |
| 2026-05-05 19:00 | 46.00336 | 5.24675 | 5012 ft | 256 kts | 238° |
| 2026-05-05 19:00 | 45.99419 | 5.22495 | 4638 ft | 254 kts | 238° |
| 2026-05-05 19:01 | 45.98505 | 5.20326 | 4232 ft | 253 kts | 238° |
| 2026-05-05 19:01 | 45.97596 | 5.18160 | 3825 ft | 253 kts | 238° |
| 2026-05-05 19:01 | 45.96688 | 5.16006 | 3416 ft | 252 kts | 238° |
| 2026-05-05 19:01 | 45.95781 | 5.13860 | 3063 ft | 250 kts | 239° |
| 2026-05-05 19:02 | 45.94904 | 5.11782 | 3009 ft | 235 kts | 238° |
| 2026-05-05 19:02 | 45.94092 | 5.09856 | 3031 ft | 212 kts | 238° |
| 2026-05-05 19:02 | 45.93280 | 5.08213 | 3018 ft | 189 kts | 224° |
| 2026-05-05 19:02 | 45.92243 | 5.07293 | 3031 ft | 173 kts | 201° |
| 2026-05-05 19:03 | 45.91037 | 5.07057 | 3035 ft | 179 kts | 179° |
| 2026-05-05 19:03 | 45.89794 | 5.07194 | 3019 ft | 180 kts | 176° |
| 2026-05-05 19:03 | 45.88565 | 5.07346 | 3014 ft | 180 kts | 176° |
| 2026-05-05 19:03 | 45.87319 | 5.07499 | 3010 ft | 180 kts | 177° |
| 2026-05-05 19:04 | 45.86079 | 5.07651 | 3003 ft | 173 kts | 176° |
| 2026-05-05 19:04 | 45.84973 | 5.07788 | 2995 ft | 151 kts | 177° |
| 2026-05-05 19:04 | 45.83956 | 5.07912 | 2848 ft | 143 kts | 177° |
| 2026-05-05 19:04 | 45.82979 | 5.08031 | 2664 ft | 139 kts | 177° |
| 2026-05-05 19:05 | 45.82019 | 5.08148 | 2481 ft | 138 kts | 177° |
| 2026-05-05 19:05 | 45.81375 | 5.08226 | 2358 ft | 137 kts | 177° |
| 2026-05-05 19:05 | 45.80439 | 5.08340 | 2169 ft | 136 kts | 177° |
| 2026-05-05 19:05 | 45.79179 | 5.08494 | 1938 ft | 136 kts | 176° |
| 2026-05-05 19:06 | 45.78558 | 5.08570 | 1814 ft | 135 kts | 176° |
| 2026-05-05 19:06 | 45.77617 | 5.08684 | 1631 ft | 136 kts | 175° |
| 2026-05-05 19:06 | 45.76673 | 5.08799 | 1448 ft | 137 kts | 175° |
| 2026-05-05 19:06 | 45.75726 | 5.08915 | 1265 ft | 137 kts | 175° |
| 2026-05-05 19:07 | 45.74768 | 5.09035 | 1038 ft | 138 kts | 174° |
| 2026-05-05 19:07 | 45.73809 | 5.09160 | 836 ft | 138 kts | 175° |
| 2026-05-05 19:07 | 45.72897 | 5.09269 | 777 ft | 115 kts | 175° |
| 2026-05-05 19:07 | 45.72318 | 5.09332 | 786 ft | 49 kts | 175° |
| 2026-05-05 19:08 | 45.72198 | 5.09312 | 788 ft | 2 kts | 198° |
| 2026-05-05 19:08 | 45.72131 | 5.09287 | 788 ft | 16 kts | 194° |
| 2026-05-05 19:08 | 45.72030 | 5.09240 | 790 ft | 13 kts | 203° |
| 2026-05-05 19:08 | 45.71983 | 5.09181 | 792 ft | 0 kts | 245° |
| 2026-05-05 19:09 | 45.71983 | 5.09179 | 792 ft | 3 kts | 246° |
| 2026-05-05 19:09 | 45.71970 | 5.09039 | 797 ft | 22 kts | 265° |
| 2026-05-05 19:09 | 45.71957 | 5.08828 | 798 ft | 21 kts | 265° |
| 2026-05-05 19:09 | 45.71953 | 5.08744 | 796 ft | 0 kts | 265° |
| 2026-05-05 19:10 | 45.71953 | 5.08742 | 796 ft | 2 kts | 265° |
| 2026-05-05 19:10 | 45.71948 | 5.08651 | 796 ft | 16 kts | 266° |
| 2026-05-05 19:11 | 45.71942 | 5.08477 | 795 ft | 18 kts | 271° |
| 2026-05-05 19:11 | 45.71963 | 5.08310 | 794 ft | 15 kts | 282° |
| 2026-05-05 19:11 | 45.71922 | 5.08218 | 794 ft | 11 kts | 201° |
| 2026-05-05 19:11 | 45.71816 | 5.08170 | 796 ft | 18 kts | 200° |
| 2026-05-05 19:12 | 45.71705 | 5.08083 | 797 ft | 19 kts | 198° |
| 2026-05-05 19:12 | 45.71575 | 5.08031 | 798 ft | 19 kts | 195° |
| 2026-05-05 19:12 | 45.71463 | 5.07975 | 800 ft | 15 kts | 216° |
| 2026-05-05 19:12 | 45.71461 | 5.07829 | 800 ft | 15 kts | 303° |
| 2026-05-05 19:13 | 45.71495 | 5.07725 | 799 ft | 2 kts | 319° |
| 2026-05-05 19:13 | 45.71522 | 5.07724 | 799 ft | 8 kts | 2° |
| 2026-05-05 19:13 | 45.71554 | 5.07734 | 798 ft | 0 kts | 18° |
| 2026-05-05 19:13 | 45.71561 | 5.07736 | 798 ft | 0 kts | 17° |